Time;durP1;ratioP1;P1;durP2;ratioP2;P2;SDS_P1;SDS_P2;PMS_P1;PMS_P2;Temp;Humidity;BMP_temperature;BMP_pressure;BME280_temperature;BME280_humidity;BME280_pressure;Samples;Min_cycle;Max_cycle;Signal;HPM_P1;HPM_P2
2023/12/26 07:31:57;;;;;;;6.05;0.88;;;;;;;;;;6127404;23;20048;-95
2023/12/26 07:34:22;;;;;;;7.30;1.08;;;;;;;;;;6125387;23;20026;-95
2023/12/26 07:36:48;;;;;;;5.28;0.95;;;;;;;;;;6099978;23;20021;-95
2023/12/26 07:39:37;;;;;;;5.63;1.20;;;;;;;;;;6101536;23;20006;-95
2023/12/26 07:42:00;;;;;;;7.90;1.00;;;;;;;;;;6123950;23;20088;-96
2023/12/26 07:44:44;;;;;;;7.03;1.08;;;;;;;;;;6077340;23;20017;-94
2023/12/26 07:47:09;;;;;;;5.45;1.08;;;;;;;;;;6100398;23;20014;-94
2023/12/26 07:49:47;;;;;;;8.43;0.90;;;;;;;;;;6101016;23;20080;-95
2023/12/26 07:52:16;;;;;;;10.38;2.03;;;;;;;;;;6100876;23;20017;-95
2023/12/26 07:54:43;;;;;;;6.57;1.02;;;;;;;;;;6101334;23;20006;-94
2023/12/26 07:57:28;;;;;;;;;;;;;;;;;;;;;
2023/12/26 07:59:56;;;;;;;10.20;1.42;;;;;;;;;;6126079;23;20081;-96
2023/12/26 08:02:22;;;;;;;10.25;1.98;;;;;;;;;;6100450;23;20084;-94
2023/12/26 08:04:50;;;;;;;6.57;1.00;;;;;;;;;;6099685;23;20009;-94
2023/12/26 08:07:22;;;;;;;7.40;0.93;;;;;;;;;;6100843;23;20432;-96
2023/12/26 08:09:50;;;;;;;7.28;1.50;;;;;;;;;;6125392;23;20006;-96
2023/12/26 08:12:18;;;;;;;6.47;1.10;;;;;;;;;;6100731;23;20017;-95
2023/12/26 08:14:49;;;;;;;6.80;0.88;;;;;;;;;;6100167;23;20009;-94
2023/12/26 08:17:19;;;;;;;8.23;1.40;;;;;;;;;;6124442;23;20009;-94
2023/12/26 08:19:45;;;;;;;7.45;1.05;;;;;;;;;;6125184;23;20002;-94
2023/12/26 08:22:14;;;;;;;7.82;1.10;;;;;;;;;;6126279;23;20017;-94
2023/12/26 08:24:44;;;;;;;9.82;1.20;;;;;;;;;;6100511;23;20010;-95
2023/12/26 08:27:10;;;;;;;7.63;1.35;;;;;;;;;;6101910;23;20002;-96
2023/12/26 08:29:39;;;;;;;6.88;1.20;;;;;;;;;;6099457;23;20013;-94
2023/12/26 08:32:14;;;;;;;8.98;1.20;;;;;;;;;;6126131;23;20009;-95
2023/12/26 08:34:44;;;;;;;9.00;1.15;;;;;;;;;;6129818;23;20015;-94
2023/12/26 08:37:15;;;;;;;4.78;1.00;;;;;;;;;;6129558;23;20466;-95
2023/12/26 08:39:40;;;;;;;7.80;1.45;;;;;;;;;;6130007;23;20081;-95
2023/12/26 08:42:12;;;;;;;7.75;1.30;;;;;;;;;;6129870;23;20041;-96
2023/12/26 08:45:11;;;;;;;7.50;1.10;;;;;;;;;;6153057;23;20009;-94
2023/12/26 08:48:16;;;;;;;;;;;;;;;;;;;;;
2023/12/26 08:50:42;;;;;;;7.30;1.15;;;;;;;;;;6155518;23;20503;-95
2023/12/26 08:53:13;;;;;;;6.28;1.20;;;;;;;;;;6155995;23;20008;-96
2023/12/26 08:55:46;;;;;;;9.02;1.15;;;;;;;;;;6129430;23;20057;-94
2023/12/26 08:58:12;;;;;;;8.10;1.33;;;;;;;;;;6129691;23;20399;-95
2023/12/26 09:00:38;;;;;;;8.82;1.23;;;;;;;;;;6125308;23;20002;-94
2023/12/26 09:03:16;;;;;;;8.40;1.35;;;;;;;;;;6130071;23;20008;-95
2023/12/26 09:05:42;;;;;;;8.57;1.10;;;;;;;;;;6128943;23;20009;-94
2023/12/26 09:08:26;;;;;;;6.90;1.25;;;;;;;;;;6133213;23;20012;-94
2023/12/26 09:10:52;;;;;;;8.95;1.30;;;;;;;;;;6132413;23;20008;-94
2023/12/26 09:13:26;;;;;;;10.55;1.70;;;;;;;;;;6131599;23;20037;-94
2023/12/26 09:15:52;;;;;;;5.88;1.13;;;;;;;;;;6131942;23;20037;-94
2023/12/26 09:18:21;;;;;;;6.78;1.25;;;;;;;;;;6132865;23;20015;-93
2023/12/26 09:20:47;;;;;;;8.93;1.40;;;;;;;;;;6131327;23;20446;-93
2023/12/26 09:23:20;;;;;;;6.70;1.25;;;;;;;;;;6132337;23;20005;-95
2023/12/26 09:25:48;;;;;;;8.88;1.15;;;;;;;;;;6131514;23;20084;-92
2023/12/26 09:28:14;;;;;;;9.15;1.45;;;;;;;;;;6130194;23;20013;-93
2023/12/26 09:30:40;;;;;;;12.25;1.73;;;;;;;;;;6129639;23;20010;-93
2023/12/26 09:33:08;;;;;;;10.90;1.38;;;;;;;;;;6130777;23;20073;-94
2023/12/26 09:35:50;;;;;;;;;;;;;;;;;;;;;
2023/12/26 09:38:17;;;;;;;8.75;1.67;;;;;;;;;;6151019;23;20076;-93
2023/12/26 09:41:10;;;;;;;11.02;1.77;;;;;;;;;;6129314;23;20001;-94
2023/12/26 09:43:40;;;;;;;14.25;1.42;;;;;;;;;;6130119;23;20008;-93
2023/12/26 09:46:06;;;;;;;9.80;1.30;;;;;;;;;;6129707;23;20009;-94
2023/12/26 09:51:31;;;;;;;10.88;1.60;;;;;;;;;;6155025;23;20054;-92
2023/12/26 09:54:04;;;;;;;13.02;1.40;;;;;;;;;;6129027;23;20005;-93
2023/12/26 09:56:50;;;;;;;;;;;;;;;;;;6129088;23;20454;-94
2023/12/26 09:59:22;;;;;;;7.93;1.10;;;;;;;;;;6127664;23;20211;-95
2023/12/26 10:01:49;;;;;;;6.15;1.08;;;;;;;;;;6152998;23;20015;-93
2023/12/26 10:04:24;;;;;;;6.97;1.55;;;;;;;;;;6129459;23;20006;-94
2023/12/26 10:06:50;;;;;;;11.13;1.38;;;;;;;;;;6130849;23;20052;-94
2023/12/26 10:09:54;;;;;;;9.32;1.38;;;;;;;;;;6131682;23;20010;-94
2023/12/26 10:12:29;;;;;;;11.23;1.48;;;;;;;;;;6133956;23;20029;-93
2023/12/26 10:15:14;;;;;;;11.50;1.45;;;;;;;;;;6133937;23;20009;-95
2023/12/26 10:17:44;;;;;;;11.77;1.60;;;;;;;;;;6131443;23;20009;-95
2023/12/26 10:20:12;;;;;;;7.80;1.65;;;;;;;;;;6130859;23;20005;-95
2023/12/26 10:22:45;;;;;;;15.10;1.50;;;;;;;;;;6131298;23;20033;-94
2023/12/26 10:25:30;;;;;;;11.93;1.80;;;;;;;;;;6130957;23;20032;-96
2023/12/26 10:30:19;;;;;;;3.13;1.00;;;;;;;;;;5066703;27;20410;-57
2023/12/26 10:49:23;;;;;;;4.45;1.50;;;;;;;;;;5069380;27;20888;-58
2023/12/26 10:51:51;;;;;;;11.55;5.40;;;;;;;;;;5010720;28;20407;-58
2023/12/26 10:54:17;;;;;;;30.17;17.83;;;;;;;;;;5025931;28;20037;-58
2023/12/26 10:56:43;;;;;;;62.25;37.08;;;;;;;;;;5026679;28;20472;-58
2023/12/26 10:59:10;;;;;;;56.83;32.53;;;;;;;;;;5028618;28;20029;-59
2023/12/26 13:53:49;;;;;;;4.30;1.08;;;;;;;;;;4983622;28;20073;-58
2023/12/26 13:56:51;;;;;;;3.20;0.80;;;;;;;;;;4984719;28;20030;-58
2023/12/26 13:59:54;;;;;;;3.97;0.75;;;;;;;;;;4988637;28;20093;-58
2023/12/26 14:02:57;;;;;;;3.67;0.80;;;;;;;;;;4984378;28;20053;-58
2023/12/26 14:06:00;;;;;;;1.95;0.50;;;;;;;;;;4991357;28;20161;-58
2023/12/26 14:09:03;;;;;;;3.23;0.87;;;;;;;;;;4992438;28;20026;-58
2023/12/26 14:12:06;;;;;;;6.97;0.63;;;;;;;;;;4989341;28;20514;-58
2023/12/26 14:15:09;;;;;;;7.55;0.63;;;;;;;;;;4984435;28;20448;-58
2023/12/26 14:18:12;;;;;;;30.65;3.97;;;;;;;;;;4991671;28;20135;-59
2023/12/26 14:21:15;;;;;;;11.40;4.17;;;;;;;;;;4990873;28;20054;-59
2023/12/26 14:24:17;;;;;;;11.02;3.00;;;;;;;;;;4988063;28;20252;-58
2023/12/26 14:27:20;;;;;;;5.53;2.00;;;;;;;;;;4981411;28;20037;-58
2023/12/26 14:30:23;;;;;;;5.90;1.33;;;;;;;;;;4989266;28;20603;-59
2023/12/26 14:33:26;;;;;;;3.57;1.10;;;;;;;;;;5002306;28;20034;-59
2023/12/26 14:36:29;;;;;;;4.83;1.00;;;;;;;;;;4990295;28;20631;-59
2023/12/26 14:39:32;;;;;;;3.25;1.00;;;;;;;;;;4988501;28;20057;-58
2023/12/26 14:42:35;;;;;;;3.70;1.20;;;;;;;;;;4982879;28;20034;-58
2023/12/26 14:45:38;;;;;;;4.63;1.08;;;;;;;;;;4990577;28;20022;-59
2023/12/26 14:48:40;;;;;;;5.50;0.88;;;;;;;;;;4988872;28;20381;-59
2023/12/26 14:51:43;;;;;;;3.23;0.83;;;;;;;;;;4987459;28;20498;-58
2023/12/26 14:54:46;;;;;;;4.20;1.07;;;;;;;;;;5001254;28;20034;-59
2023/12/26 14:57:49;;;;;;;3.67;0.90;;;;;;;;;;4985522;28;20124;-59
2023/12/26 15:00:52;;;;;;;3.28;0.65;;;;;;;;;;4975380;28;20030;-59
2023/12/26 15:03:17;;;;;;;3.20;0.82;;;;;;;;;;4988641;28;20634;-59
2023/12/26 15:05:43;;;;;;;5.47;0.80;;;;;;;;;;4978566;28;20038;-59
2023/12/26 15:08:09;;;;;;;2.97;0.90;;;;;;;;;;4980002;28;20026;-59
2023/12/26 15:10:34;;;;;;;2.08;0.80;;;;;;;;;;4980298;28;20026;-60
2023/12/26 15:13:01;;;;;;;4.03;0.80;;;;;;;;;;4974622;28;20081;-59
2023/12/26 15:15:26;;;;;;;3.78;0.80;;;;;;;;;;4974484;28;20443;-60
2023/12/26 15:17:52;;;;;;;5.30;0.98;;;;;;;;;;4977684;28;20090;-59
2023/12/26 15:20:17;;;;;;;3.60;0.85;;;;;;;;;;4983234;28;20498;-59
2023/12/26 15:22:42;;;;;;;3.00;0.63;;;;;;;;;;4974151;28;20026;-59
2023/12/26 15:25:08;;;;;;;1.55;0.70;;;;;;;;;;4979893;28;20046;-59
2023/12/26 15:27:33;;;;;;;2.10;0.80;;;;;;;;;;4974066;28;20023;-60
2023/12/26 15:29:59;;;;;;;1.55;0.50;;;;;;;;;;4976273;28;20030;-59
2023/12/26 15:32:24;;;;;;;3.70;0.75;;;;;;;;;;4976314;28;20161;-59
2023/12/26 15:34:50;;;;;;;3.53;1.02;;;;;;;;;;4981527;28;20030;-59
2023/12/26 15:37:16;;;;;;;4.60;1.00;;;;;;;;;;4981906;28;20037;-59
2023/12/26 15:39:41;;;;;;;2.00;0.80;;;;;;;;;;4989444;28;20030;-57
2023/12/26 15:42:07;;;;;;;7.93;0.90;;;;;;;;;;4977144;28;20034;-57
2023/12/26 15:44:33;;;;;;;3.90;0.80;;;;;;;;;;4978745;28;20620;-58
2023/12/26 15:46:58;;;;;;;2.67;0.80;;;;;;;;;;4975772;28;20874;-57
2023/12/26 15:49:24;;;;;;;3.63;0.80;;;;;;;;;;4974522;28;20696;-59
2023/12/26 15:51:49;;;;;;;3.78;1.00;;;;;;;;;;4980466;28;20448;-59
2023/12/26 15:54:16;;;;;;;3.08;0.68;;;;;;;;;;4982295;28;20037;-59
2023/12/26 15:56:42;;;;;;;4.13;0.93;;;;;;;;;;4973826;28;20106;-58
2023/12/26 15:59:07;;;;;;;4.80;1.17;;;;;;;;;;4979901;28;20038;-58
2023/12/26 16:01:33;;;;;;;3.03;1.00;;;;;;;;;;4984036;28;20038;-58
2023/12/26 16:03:58;;;;;;;4.55;1.23;;;;;;;;;;4982999;28;20062;-58
2023/12/26 16:06:25;;;;;;;1.90;0.90;;;;;;;;;;4977670;28;20057;-58
2023/12/26 16:08:51;;;;;;;2.78;0.90;;;;;;;;;;4978732;28;20435;-58
2023/12/26 16:11:17;;;;;;;5.60;1.10;;;;;;;;;;4974009;28;20354;-58
2023/12/26 16:13:43;;;;;;;2.60;0.68;;;;;;;;;;4975499;28;20472;-58
2023/12/26 16:16:09;;;;;;;4.78;0.98;;;;;;;;;;4979084;28;20042;-58
2023/12/26 16:18:35;;;;;;;2.72;0.75;;;;;;;;;;4977371;28;20030;-59
2023/12/26 16:21:04;;;;;;;1.83;0.60;;;;;;;;;;4980984;28;20030;-58
2023/12/26 16:23:29;;;;;;;2.28;0.70;;;;;;;;;;4980073;28;20051;-58
2023/12/26 16:25:55;;;;;;;2.80;0.70;;;;;;;;;;4981895;28;20125;-58
2023/12/26 16:28:20;;;;;;;2.55;0.70;;;;;;;;;;4981970;28;20485;-58
2023/12/26 16:30:46;;;;;;;2.60;0.85;;;;;;;;;;4983264;28;20184;-58
2023/12/26 16:33:12;;;;;;;1.85;0.52;;;;;;;;;;4978001;28;20052;-59
2023/12/26 16:35:38;;;;;;;2.28;0.52;;;;;;;;;;4964488;28;20544;-58
2023/12/26 16:38:03;;;;;;;2.00;0.75;;;;;;;;;;4979355;28;20041;-58
2023/12/26 16:40:29;;;;;;;2.30;0.70;;;;;;;;;;4978797;28;20031;-58
2023/12/26 16:42:54;;;;;;;1.50;0.63;;;;;;;;;;4976577;28;20038;-58
2023/12/26 16:45:23;;;;;;;2.33;0.60;;;;;;;;;;4976259;28;20030;-58
2023/12/26 16:47:49;;;;;;;1.92;0.60;;;;;;;;;;4974271;28;20030;-58
2023/12/26 16:50:16;;;;;;;3.10;0.80;;;;;;;;;;4991522;28;20041;-58
2023/12/26 16:52:44;;;;;;;4.00;0.90;;;;;;;;;;4977208;28;20555;-58
2023/12/26 16:55:11;;;;;;;3.83;1.10;;;;;;;;;;4982169;28;20054;-58
2023/12/26 16:57:39;;;;;;;3.33;0.90;;;;;;;;;;4989547;28;20031;-58
2023/12/26 17:00:05;;;;;;;3.83;0.93;;;;;;;;;;4986451;28;20029;-58
2023/12/26 17:02:32;;;;;;;3.58;0.70;;;;;;;;;;4989467;28;20038;-58
2023/12/26 17:04:57;;;;;;;7.68;0.95;;;;;;;;;;4987126;28;20041;-57
2023/12/26 17:07:23;;;;;;;3.50;0.75;;;;;;;;;;4990102;28;20026;-58
2023/12/26 17:09:48;;;;;;;8.25;0.75;;;;;;;;;;4988468;28;20026;-59
2023/12/26 17:12:14;;;;;;;3.03;0.63;;;;;;;;;;4988193;28;20057;-59
2023/12/26 17:14:39;;;;;;;4.43;0.93;;;;;;;;;;4988347;28;20030;-58
2023/12/26 17:17:04;;;;;;;1.10;0.70;;;;;;;;;;4988265;28;20471;-59
2023/12/26 17:19:34;;;;;;;1.83;0.73;;;;;;;;;;4987378;28;20038;-58
2023/12/26 17:21:59;;;;;;;4.30;2.00;;;;;;;;;;4986990;28;20038;-58
2023/12/26 17:24:25;;;;;;;14.27;11.85;;;;;;;;;;5001894;28;20042;-58
2023/12/26 17:26:51;;;;;;;26.88;22.83;;;;;;;;;;4988760;28;20091;-58
2023/12/26 17:29:17;;;;;;;27.15;23.98;;;;;;;;;;4987290;28;20105;-59
2023/12/26 17:31:56;;;;;;;27.88;23.95;;;;;;;;;;4984822;28;20030;-58
2023/12/26 17:34:22;;;;;;;29.42;23.40;;;;;;;;;;4987022;28;20725;-59
2023/12/26 17:36:48;;;;;;;27.80;20.98;;;;;;;;;;4986998;28;20065;-59
2023/12/26 17:39:16;;;;;;;42.13;26.77;;;;;;;;;;4986413;28;20030;-59
2023/12/26 17:41:41;;;;;;;46.90;28.27;;;;;;;;;;4988452;28;20034;-59
2023/12/26 17:44:07;;;;;;;62.70;37.92;;;;;;;;;;4989255;28;20029;-59
2023/12/26 17:46:32;;;;;;;68.03;38.05;;;;;;;;;;4987117;28;20477;-59
2023/12/26 17:48:58;;;;;;;62.40;38.30;;;;;;;;;;4986973;28;20113;-59
2023/12/26 17:51:23;;;;;;;61.20;34.08;;;;;;;;;;4989361;28;20531;-59
2023/12/26 17:53:49;;;;;;;73.78;46.35;;;;;;;;;;4988372;28;20101;-58
2023/12/26 17:56:19;;;;;;;69.10;41.35;;;;;;;;;;4988414;28;20480;-59
2023/12/26 17:58:44;;;;;;;57.75;37.90;;;;;;;;;;4988310;28;20098;-59
2023/12/26 18:01:10;;;;;;;64.53;39.00;;;;;;;;;;4990802;28;20030;-59
2023/12/26 18:03:35;;;;;;;54.10;35.60;;;;;;;;;;4989693;28;20030;-59
2023/12/26 18:06:01;;;;;;;46.00;30.13;;;;;;;;;;4988825;28;20045;-58
2023/12/26 18:08:26;;;;;;;39.08;26.65;;;;;;;;;;4986644;28;20081;-57
2023/12/26 18:10:51;;;;;;;36.22;24.65;;;;;;;;;;4988218;28;20022;-57
2023/12/26 18:13:17;;;;;;;33.40;22.15;;;;;;;;;;5005038;28;20057;-57
2023/12/26 18:15:43;;;;;;;36.35;22.02;;;;;;;;;;4989938;28;20551;-54
2023/12/26 18:18:08;;;;;;;37.35;23.65;;;;;;;;;;4986481;28;20481;-59
2023/12/26 18:20:34;;;;;;;37.70;24.25;;;;;;;;;;4990321;28;20034;-59
2023/12/26 18:23:00;;;;;;;37.00;23.25;;;;;;;;;;4987666;28;20438;-58
2023/12/26 18:25:25;;;;;;;31.55;21.60;;;;;;;;;;4981809;28;20536;-59
2023/12/26 18:27:51;;;;;;;30.15;20.42;;;;;;;;;;4986902;28;20117;-59
2023/12/26 18:30:16;;;;;;;34.42;25.48;;;;;;;;;;4988902;28;21255;-59
2023/12/26 18:32:42;;;;;;;38.92;27.42;;;;;;;;;;4989646;28;20032;-59
2023/12/26 18:35:09;;;;;;;32.67;24.25;;;;;;;;;;5002206;28;20030;-59
2023/12/26 18:37:34;;;;;;;31.30;23.50;;;;;;;;;;4987737;28;20082;-59
2023/12/26 18:40:00;;;;;;;25.27;21.13;;;;;;;;;;4988753;28;20493;-59
2023/12/26 18:42:25;;;;;;;22.70;17.38;;;;;;;;;;4987046;28;20476;-59
2023/12/26 18:44:52;;;;;;;18.85;16.38;;;;;;;;;;4983736;28;20069;-59
2023/12/26 18:47:19;;;;;;;23.98;15.18;;;;;;;;;;4987196;28;20019;-59
2023/12/26 18:49:44;;;;;;;20.92;13.73;;;;;;;;;;4987037;28;20055;-59
2023/12/26 18:52:10;;;;;;;17.00;13.32;;;;;;;;;;5002594;28;20381;-59
2023/12/26 18:54:38;;;;;;;17.85;12.40;;;;;;;;;;4988354;28;20030;-59
2023/12/26 18:57:04;;;;;;;16.33;13.10;;;;;;;;;;4987693;28;20460;-59
2023/12/26 18:59:30;;;;;;;16.35;12.35;;;;;;;;;;4986733;28;20113;-59
2023/12/26 19:01:58;;;;;;;12.43;9.90;;;;;;;;;;4988379;28;20129;-59
2023/12/26 19:04:23;;;;;;;10.45;8.95;;;;;;;;;;4986385;28;20037;-59
2023/12/26 19:06:49;;;;;;;13.27;8.18;;;;;;;;;;4983518;28;20388;-58
2023/12/26 19:09:15;;;;;;;10.15;8.10;;;;;;;;;;4990021;28;20034;-59
2023/12/26 19:11:41;;;;;;;11.18;7.20;;;;;;;;;;4992975;28;20121;-58
2023/12/26 19:14:06;;;;;;;8.13;6.50;;;;;;;;;;4990110;28;20169;-59
2023/12/26 19:16:32;;;;;;;13.25;5.80;;;;;;;;;;5008579;28;20022;-59
2023/12/26 19:18:59;;;;;;;7.28;5.25;;;;;;;;;;4992316;28;20028;-57
2023/12/26 19:21:24;;;;;;;7.13;4.60;;;;;;;;;;4993352;28;20047;-57
2023/12/26 19:23:49;;;;;;;7.22;4.10;;;;;;;;;;4990300;28;20065;-57
2023/12/26 19:26:15;;;;;;;9.63;4.60;;;;;;;;;;4988717;28;20374;-56
2023/12/26 19:28:40;;;;;;;6.85;4.80;;;;;;;;;;4992652;28;20030;-56
2023/12/26 19:31:07;;;;;;;7.07;4.18;;;;;;;;;;4974622;28;20476;-57
2023/12/26 19:33:33;;;;;;;5.70;3.80;;;;;;;;;;4990501;28;20180;-56
2023/12/26 19:35:58;;;;;;;7.78;3.70;;;;;;;;;;4992100;28;20619;-56
2023/12/26 19:38:24;;;;;;;6.57;3.50;;;;;;;;;;4989328;28;20030;-56
2023/12/26 19:40:50;;;;;;;12.38;4.55;;;;;;;;;;4989051;28;20025;-56
2023/12/26 19:43:16;;;;;;;9.30;4.47;;;;;;;;;;4992789;28;20037;-57
2023/12/26 19:45:41;;;;;;;8.52;3.67;;;;;;;;;;4992978;28;20436;-56
2023/12/26 19:48:08;;;;;;;6.65;3.40;;;;;;;;;;4991360;28;20054;-56
2023/12/26 19:50:33;;;;;;;5.75;3.20;;;;;;;;;;4992063;28;20030;-52
2023/12/26 19:52:59;;;;;;;5.68;3.30;;;;;;;;;;4992573;28;20018;-54
2023/12/26 19:55:24;;;;;;;7.93;3.58;;;;;;;;;;4988098;28;20026;-54
2023/12/26 19:57:50;;;;;;;8.13;2.90;;;;;;;;;;4991526;28;20113;-54
2023/12/26 20:00:15;;;;;;;6.70;4.18;;;;;;;;;;4992623;28;20064;-54
2023/12/26 20:02:41;;;;;;;6.38;3.03;;;;;;;;;;4992045;28;20022;-52
2023/12/26 20:05:07;;;;;;;5.18;3.03;;;;;;;;;;4990332;28;21559;-51
2023/12/26 20:07:33;;;;;;;6.15;3.47;;;;;;;;;;4990608;28;20022;-53
2023/12/26 20:10:00;;;;;;;9.25;2.85;;;;;;;;;;4990378;28;20105;-54
2023/12/26 20:12:25;;;;;;;6.35;3.60;;;;;;;;;;4984236;28;20062;-53
2023/12/26 20:14:50;;;;;;;6.53;2.92;;;;;;;;;;4989838;28;20065;-52
2023/12/26 20:17:16;;;;;;;6.40;3.33;;;;;;;;;;4990542;28;20030;-52
2023/12/26 20:19:41;;;;;;;6.97;3.70;;;;;;;;;;4988774;28;20037;-50
2023/12/26 20:22:07;;;;;;;5.80;3.60;;;;;;;;;;4989252;28;20026;-50
2023/12/26 20:24:33;;;;;;;5.15;2.85;;;;;;;;;;4989460;28;20531;-53
2023/12/26 20:26:58;;;;;;;6.47;3.25;;;;;;;;;;4983580;28;20030;-52
2023/12/26 20:29:24;;;;;;;5.95;2.88;;;;;;;;;;4991846;28;20418;-58
2023/12/26 20:31:54;;;;;;;5.28;2.80;;;;;;;;;;4990262;28;20400;-58
2023/12/26 20:34:20;;;;;;;6.95;3.42;;;;;;;;;;5005136;28;20041;-58
2023/12/26 20:36:47;;;;;;;4.80;2.90;;;;;;;;;;4990256;28;20721;-58
2023/12/26 20:39:13;;;;;;;5.07;2.90;;;;;;;;;;4990103;28;20034;-54
2023/12/26 20:41:39;;;;;;;5.70;3.38;;;;;;;;;;4990002;28;20089;-54
2023/12/26 20:44:05;;;;;;;7.18;3.90;;;;;;;;;;4987469;28;20038;-51
2023/12/26 20:46:30;;;;;;;4.95;3.20;;;;;;;;;;4982150;28;20727;-52
2023/12/26 20:48:56;;;;;;;6.47;3.55;;;;;;;;;;4982778;28;20030;-51
2023/12/26 20:51:22;;;;;;;5.43;3.28;;;;;;;;;;4985651;28;20102;-50
2023/12/26 20:53:48;;;;;;;6.47;3.28;;;;;;;;;;4984768;28;20617;-52
2023/12/26 20:56:14;;;;;;;6.03;3.88;;;;;;;;;;4983843;28;20163;-52
2023/12/26 20:58:40;;;;;;;7.40;4.80;;;;;;;;;;4980268;28;20023;-50
2023/12/26 21:01:05;;;;;;;6.10;4.50;;;;;;;;;;4982026;28;20084;-52
2023/12/26 21:03:31;;;;;;;6.88;5.30;;;;;;;;;;4983279;28;20030;-51
2023/12/26 21:05:56;;;;;;;8.10;5.50;;;;;;;;;;4986834;28;20096;-53
2023/12/26 21:08:22;;;;;;;7.05;5.00;;;;;;;;;;4984593;28;20073;-55
2023/12/26 21:10:47;;;;;;;6.95;4.88;;;;;;;;;;4984789;28;20488;-53
2023/12/26 21:13:12;;;;;;;5.80;4.68;;;;;;;;;;4985467;28;20038;-55
2023/12/26 21:15:40;;;;;;;9.75;5.90;;;;;;;;;;4974060;28;20026;-54
2023/12/26 21:18:06;;;;;;;6.63;5.00;;;;;;;;;;4974504;28;20034;-54
2023/12/26 21:20:31;;;;;;;7.57;5.45;;;;;;;;;;4975551;28;20034;-54
2023/12/26 21:22:57;;;;;;;7.60;5.72;;;;;;;;;;4993435;28;20030;-55
2023/12/26 21:25:24;;;;;;;7.80;5.97;;;;;;;;;;4977109;28;20038;-54
2023/12/26 21:27:50;;;;;;;6.65;5.18;;;;;;;;;;4976526;28;20110;-54
2023/12/26 21:30:15;;;;;;;6.50;4.82;;;;;;;;;;4980876;28;20038;-54
2023/12/26 21:32:41;;;;;;;8.23;6.32;;;;;;;;;;4982749;28;20034;-49
2023/12/26 21:35:07;;;;;;;7.35;5.13;;;;;;;;;;4979943;28;20039;-53
2023/12/26 21:37:32;;;;;;;7.00;4.90;;;;;;;;;;4982528;28;20026;-54
2023/12/26 21:40:00;;;;;;;5.22;4.10;;;;;;;;;;4965098;28;20018;-50
2023/12/26 21:42:26;;;;;;;9.52;4.50;;;;;;;;;;4979855;28;20038;-54
2023/12/26 21:44:51;;;;;;;6.20;4.53;;;;;;;;;;4978339;28;20038;-53
2023/12/26 21:47:18;;;;;;;7.40;4.80;;;;;;;;;;4977984;28;20034;-54
2023/12/26 21:49:43;;;;;;;6.55;4.47;;;;;;;;;;4976706;28;20070;-52
2023/12/26 21:52:10;;;;;;;7.60;4.75;;;;;;;;;;4976220;28;20130;-54
2023/12/26 21:54:39;;;;;;;7.80;4.88;;;;;;;;;;4977595;28;20034;-53
2023/12/26 21:57:04;;;;;;;5.65;4.05;;;;;;;;;;4978568;28;20057;-52
2023/12/26 21:59:30;;;;;;;8.10;5.10;;;;;;;;;;4981314;28;20121;-54
2023/12/26 22:01:55;;;;;;;6.32;4.43;;;;;;;;;;4974189;28;20480;-55
2023/12/26 22:04:21;;;;;;;5.70;4.28;;;;;;;;;;4978255;28;21624;-52
2023/12/26 22:06:47;;;;;;;6.32;4.35;;;;;;;;;;4978975;28;20035;-53
2023/12/26 22:09:16;;;;;;;6.28;3.85;;;;;;;;;;4975961;28;20379;-54
2023/12/26 22:11:41;;;;;;;6.60;4.57;;;;;;;;;;4978160;28;20030;-55
2023/12/26 22:14:07;;;;;;;8.88;4.82;;;;;;;;;;4977801;28;20037;-53
2023/12/26 22:16:33;;;;;;;7.55;4.85;;;;;;;;;;4979075;28;20786;-54
2023/12/26 22:18:59;;;;;;;7.25;5.20;;;;;;;;;;4986098;28;20106;-51
2023/12/26 22:21:24;;;;;;;7.88;4.55;;;;;;;;;;4986782;28;20026;-50
2023/12/26 22:23:52;;;;;;;7.28;3.53;;;;;;;;;;4972917;28;20066;-52
2023/12/26 22:26:19;;;;;;;9.00;4.07;;;;;;;;;;4982369;28;20065;-55
2023/12/26 22:28:45;;;;;;;6.05;4.13;;;;;;;;;;4979064;28;20030;-53
2023/12/26 22:31:17;;;;;;;7.28;4.10;;;;;;;;;;4987399;28;20117;-54
2023/12/26 22:33:43;;;;;;;8.02;4.60;;;;;;;;;;4990340;28;20112;-49
2023/12/26 22:36:11;;;;;;;9.32;3.90;;;;;;;;;;4989006;28;20070;-51
2023/12/26 22:38:38;;;;;;;7.60;4.90;;;;;;;;;;4987754;28;20039;-53
2023/12/26 22:41:05;;;;;;;6.85;4.43;;;;;;;;;;4988298;28;20034;-51
2023/12/26 22:43:33;;;;;;;7.90;4.50;;;;;;;;;;4989918;28;20026;-52
2023/12/26 22:46:03;;;;;;;4.82;3.22;;;;;;;;;;4991399;28;20146;-50
2023/12/26 22:48:28;;;;;;;5.88;3.28;;;;;;;;;;4989765;28;20105;-58
2023/12/26 22:50:54;;;;;;;6.68;3.40;;;;;;;;;;4986002;28;20476;-58
2023/12/26 22:53:20;;;;;;;7.60;3.55;;;;;;;;;;4990122;28;20040;-58
2023/12/26 22:55:45;;;;;;;6.18;3.10;;;;;;;;;;4988901;28;20085;-57
2023/12/26 22:58:11;;;;;;;6.40;3.42;;;;;;;;;;4985282;28;20645;-58
2023/12/26 23:00:36;;;;;;;5.97;3.45;;;;;;;;;;4988652;28;20500;-58
2023/12/26 23:03:01;;;;;;;15.98;3.45;;;;;;;;;;4986477;28;20053;-58
2023/12/26 23:05:27;;;;;;;5.68;3.30;;;;;;;;;;4983364;28;20027;-58
2023/12/26 23:07:53;;;;;;;6.90;3.45;;;;;;;;;;4989395;28;20579;-58
2023/12/26 23:10:18;;;;;;;12.05;3.75;;;;;;;;;;5004756;28;20027;-58
2023/12/26 23:12:44;;;;;;;5.38;3.28;;;;;;;;;;4987147;28;20077;-58
2023/12/26 23:15:10;;;;;;;5.93;3.40;;;;;;;;;;4986540;28;20022;-58
2023/12/26 23:17:35;;;;;;;8.38;3.40;;;;;;;;;;4986943;28;20469;-58
2023/12/26 23:20:01;;;;;;;5.63;3.15;;;;;;;;;;4988725;28;20027;-58
2023/12/26 23:22:26;;;;;;;7.15;3.85;;;;;;;;;;4986475;28;20076;-58
2023/12/26 23:24:51;;;;;;;6.50;3.20;;;;;;;;;;4985171;28;20030;-58
2023/12/26 23:27:17;;;;;;;5.50;3.20;;;;;;;;;;4980632;28;20077;-58
2023/12/26 23:29:42;;;;;;;3.92;2.72;;;;;;;;;;4987408;28;20030;-58
2023/12/26 23:32:08;;;;;;;4.95;3.00;;;;;;;;;;4974806;28;20034;-59
2023/12/26 23:34:34;;;;;;;5.45;2.88;;;;;;;;;;4967194;28;20093;-58
2023/12/26 23:36:59;;;;;;;5.43;2.90;;;;;;;;;;5000440;28;20088;-58
2023/12/26 23:39:25;;;;;;;6.15;3.20;;;;;;;;;;4984752;28;20038;-58
2023/12/26 23:41:50;;;;;;;7.60;2.90;;;;;;;;;;4985306;28;20046;-58
2023/12/26 23:44:15;;;;;;;5.50;3.00;;;;;;;;;;4987077;28;20134;-58
2023/12/26 23:46:43;;;;;;;5.05;2.50;;;;;;;;;;4980228;28;20528;-58
2023/12/26 23:49:08;;;;;;;7.13;2.90;;;;;;;;;;4979804;28;20805;-58
2023/12/26 23:51:34;;;;;;;4.82;2.80;;;;;;;;;;4984875;28;20034;-57
2023/12/26 23:54:03;;;;;;;3.90;2.60;;;;;;;;;;4989260;28;20041;-58
2023/12/26 23:56:28;;;;;;;4.07;2.50;;;;;;;;;;4986930;28;20026;-58
2023/12/26 23:58:54;;;;;;;7.53;2.25;;;;;;;;;;4993616;28;20065;-58
